Time;durP1;ratioP1;P1;durP2;ratioP2;P2;SDS_P1;SDS_P2;PMS_P1;PMS_P2;Temp;Humidity;BMP_temperature;BMP_pressure;BME280_temperature;BME280_humidity;BME280_pressure;Samples;Min_cycle;Max_cycle;Signal;HPM_P1;HPM_P2
2022/01/04 00:00:45;;;;;;;61.10;53.37;;;;;;;6.85;92.07;99924.81;4911255;29;20055;-88
2022/01/04 00:03:11;;;;;;;66.70;52.10;;;;;;;6.85;92.01;99923.97;4918340;29;20034;-88
2022/01/04 00:05:37;;;;;;;59.03;52.03;;;;;;;6.97;91.43;99926.22;4926267;29;20031;-87
2022/01/04 00:08:07;;;;;;;57.67;51.72;;;;;;;6.95;92.04;99912.66;4929935;29;20008;-87
2022/01/04 00:10:32;;;;;;;58.50;52.63;;;;;;;6.87;91.77;99906.88;4931080;29;20028;-87
2022/01/04 00:15:44;;;;;;;61.78;54.08;;;;;;;6.86;92.78;99910.31;4935381;29;20015;-88
2022/01/04 00:18:49;;;;;;;59.83;53.67;;;;;;;6.92;92.35;99912.72;4968825;23;20035;-89
2022/01/04 00:21:15;;;;;;;61.40;52.72;;;;;;;6.86;92.31;99915.44;4970288;28;20269;-87
2022/01/04 00:23:57;;;;;;;58.95;52.83;;;;;;;7.05;91.45;99900.44;4938865;28;20031;-87
2022/01/04 00:26:23;;;;;;;61.42;53.63;;;;;;;6.82;91.99;99896.75;4927512;29;20032;-89
2022/01/04 00:28:48;;;;;;;61.30;53.73;;;;;;;6.94;91.30;99887.94;4930594;29;20017;-89
2022/01/04 00:31:13;;;;;;;58.60;52.70;;;;;;;6.76;91.64;99860.31;4922650;29;20096;-89
2022/01/04 00:33:39;;;;;;;65.17;52.80;;;;;;;6.80;92.35;99884.91;4958687;29;20056;-89
2022/01/04 00:36:05;;;;;;;61.20;52.60;;;;;;;6.90;91.95;99892.31;4958753;29;20023;-89
2022/01/04 00:38:31;;;;;;;62.88;55.60;;;;;;;6.81;91.94;99877.22;4928310;29;20055;-88
2022/01/04 00:40:56;;;;;;;59.93;53.27;;;;;;;6.82;92.00;99872.94;4943513;29;20029;-89
2022/01/04 00:43:22;;;;;;;61.63;54.00;;;;;;;6.76;92.04;99870.53;4928982;29;20022;-89
2022/01/04 00:45:47;;;;;;;62.03;53.28;;;;;;;6.89;91.72;99864.22;4930120;29;20020;-88
2022/01/04 00:50:38;;;;;;;60.93;53.83;;;;;;;6.92;91.69;99870.97;4929989;29;20114;-87
2022/01/04 00:53:05;;;;;;;60.30;52.47;;;;;;;6.78;92.25;99863.69;4911723;29;20016;-88
2022/01/04 00:55:30;;;;;;;59.03;52.95;;;;;;;6.77;92.97;99870.50;4924003;29;20035;-88
2022/01/04 00:57:56;;;;;;;59.13;52.10;;;;;;;6.72;93.05;99862.13;4932558;29;20027;-88
2022/01/04 01:00:22;;;;;;;58.87;52.47;;;;;;;6.65;92.67;99851.22;4924806;29;20051;-89
2022/01/04 01:02:48;;;;;;;65.40;52.47;;;;;;;6.77;92.56;99857.72;4920937;29;20028;-86
2022/01/04 01:05:14;;;;;;;59.47;52.47;;;;;;;6.67;92.24;99843.53;4921180;29;20051;-88
2022/01/04 01:07:40;;;;;;;;;;;;;;;6.72;92.51;99844.22;4908678;29;20034;-87
2022/01/04 01:10:31;;;;;;;59.10;52.97;;;;;;;6.78;92.49;99835.56;4921343;29;19911;-86
2022/01/04 01:12:56;;;;;;;60.88;53.25;;;;;;;6.73;93.19;99835.69;4934280;29;20509;-88
2022/01/04 01:15:22;;;;;;;58.13;52.30;;;;;;;6.71;93.01;99838.28;4912209;29;20042;-88
2022/01/04 01:17:47;;;;;;;58.10;52.27;;;;;;;6.70;93.00;99816.16;4907748;29;20030;-89
2022/01/04 01:20:13;;;;;;;57.67;51.97;;;;;;;6.81;92.90;99820.13;4918684;29;20272;-88
2022/01/04 01:22:40;;;;;;;60.55;53.28;;;;;;;6.68;93.18;99815.38;4923220;29;20020;-88
2022/01/04 01:25:06;;;;;;;64.30;53.55;;;;;;;6.85;92.35;99826.84;4936900;29;20031;-88
2022/01/04 01:27:31;;;;;;;58.58;52.67;;;;;;;6.76;92.79;99817.72;4915600;29;20028;-89
2022/01/04 01:29:56;;;;;;;62.07;54.07;;;;;;;6.72;92.29;99816.94;4933832;29;20042;-89
2022/01/04 01:32:22;;;;;;;58.63;52.40;;;;;;;6.57;92.83;99790.97;4941597;29;20443;-89
2022/01/04 01:34:47;;;;;;;58.43;52.07;;;;;;;6.78;92.24;99802.34;4921657;29;20027;-87
2022/01/04 01:37:13;;;;;;;58.77;52.70;;;;;;;6.85;92.61;99808.94;4933413;29;20026;-89
2022/01/04 01:39:38;;;;;;;57.73;51.93;;;;;;;6.65;92.57;99782.22;4928158;29;20030;-87
2022/01/04 01:42:04;;;;;;;59.93;53.27;;;;;;;6.75;92.44;99789.66;4934434;29;20055;-88
2022/01/04 01:44:31;;;;;;;59.45;52.80;;;;;;;6.81;92.58;99802.22;4926820;29;20486;-89
2022/01/04 01:46:57;;;;;;;64.95;56.38;;;;;;;6.75;92.39;99784.53;4937970;29;20035;-88
2022/01/04 01:49:23;;;;;;;63.60;53.67;;;;;;;6.84;92.66;99800.44;4911065;29;20034;-87
2022/01/04 01:51:49;;;;;;;61.35;54.38;;;;;;;6.82;92.17;99802.19;4915249;29;20027;-89
2022/01/04 01:54:15;;;;;;;57.83;51.87;;;;;;;6.87;91.61;99789.28;4912160;29;20020;-88
2022/01/04 01:56:40;;;;;;;58.60;52.45;;;;;;;6.81;92.40;99786.88;4908135;29;20066;-88
2022/01/04 01:59:06;;;;;;;57.93;52.10;;;;;;;6.83;91.77;99790.25;4913364;29;20190;-88
2022/01/04 02:01:31;;;;;;;59.55;53.42;;;;;;;6.83;92.17;99792.81;4908186;29;20470;-87
2022/01/04 02:03:56;;;;;;;59.47;52.87;;;;;;;6.84;92.30;99789.38;4909434;29;20035;-88
2022/01/04 02:06:23;;;;;;;58.80;52.83;;;;;;;6.79;91.98;99786.09;4926338;29;20035;-88
2022/01/04 02:08:49;;;;;;;59.15;52.50;;;;;;;6.81;92.41;99769.84;4910732;29;20473;-88
2022/01/04 02:11:14;;;;;;;60.63;53.73;;;;;;;6.75;92.49;99762.34;4909687;29;20024;-88
2022/01/04 02:13:40;;;;;;;59.78;53.35;;;;;;;6.79;92.56;99758.00;4935702;29;20015;-88
2022/01/04 02:16:09;;;;;;;60.37;53.80;;;;;;;6.77;93.08;99758.03;4927835;29;20048;-87
2022/01/04 02:18:35;;;;;;;62.00;55.45;;;;;;;6.87;92.91;99764.56;4930879;29;20513;-87
2022/01/04 02:21:00;;;;;;;62.60;53.40;;;;;;;6.90;92.57;99759.38;4926932;29;20063;-89
2022/01/04 02:23:25;;;;;;;61.20;54.73;;;;;;;6.83;92.61;99767.25;4931268;29;20024;-88
2022/01/04 02:25:50;;;;;;;61.37;53.97;;;;;;;6.71;92.70;99742.88;4926343;29;20114;-88
2022/01/04 02:28:20;;;;;;;63.20;54.40;;;;;;;6.81;92.58;99741.75;4940210;28;20019;-88
2022/01/04 02:30:46;;;;;;;62.83;54.80;;;;;;;6.93;92.64;99744.81;4926887;29;20020;-88
2022/01/04 02:33:11;;;;;;;66.40;55.33;;;;;;;6.77;92.46;99727.38;4928630;29;20055;-89
2022/01/04 02:35:37;;;;;;;69.37;55.30;;;;;;;6.82;93.16;99722.94;4927119;29;20057;-88
2022/01/04 02:38:03;;;;;;;64.87;53.80;;;;;;;6.80;93.21;99718.78;4923843;29;20013;-89
2022/01/04 02:40:28;;;;;;;68.43;55.78;;;;;;;6.77;92.43;99703.53;4924207;29;20004;-86
2022/01/04 02:42:54;;;;;;;66.97;55.10;;;;;;;6.92;92.50;99726.09;4940960;29;20023;-87
2022/01/04 02:45:20;;;;;;;61.43;54.47;;;;;;;6.71;92.54;99702.84;4930300;29;20020;-87
2022/01/04 02:47:45;;;;;;;61.97;55.55;;;;;;;6.83;92.45;99722.06;4922124;29;20028;-87
2022/01/04 02:50:11;;;;;;;60.70;54.50;;;;;;;6.69;92.88;99696.91;4901908;29;20578;-87
2022/01/04 02:52:36;;;;;;;61.60;54.85;;;;;;;6.80;93.04;99696.59;4908894;29;20023;-88
2022/01/04 02:55:08;;;;;;;64.43;55.13;;;;;;;6.92;92.31;99692.84;4921450;29;20493;-88
2022/01/04 02:57:34;;;;;;;61.42;55.03;;;;;;;6.80;92.90;99691.50;4927338;29;20239;-87
2022/01/04 02:59:59;;;;;;;61.50;54.90;;;;;;;6.81;93.00;99692.31;4919272;29;20555;-88
2022/01/04 03:02:25;;;;;;;62.90;54.50;;;;;;;6.76;93.26;99679.69;4912972;29;20383;-88
2022/01/04 03:04:50;;;;;;;61.42;54.67;;;;;;;6.80;92.65;99688.09;4926421;29;20472;-87
2022/01/04 03:07:16;;;;;;;65.83;55.43;;;;;;;6.85;92.45;99678.56;4906250;29;20052;-88
2022/01/04 03:09:41;;;;;;;58.97;52.87;;;;;;;6.80;93.25;99678.72;4901041;29;20472;-87
2022/01/04 03:12:07;;;;;;;62.65;55.67;;;;;;;6.78;93.02;99680.47;4930514;29;20564;-88
2022/01/04 03:14:34;;;;;;;61.65;55.00;;;;;;;6.79;93.68;99673.66;4914598;29;20036;-88
2022/01/04 03:16:59;;;;;;;66.75;55.33;;;;;;;6.76;93.41;99663.50;4912493;29;20060;-89
2022/01/04 03:19:25;;;;;;;63.43;54.97;;;;;;;6.74;93.31;99655.06;4926356;28;20071;-89
2022/01/04 03:21:50;;;;;;;70.33;57.33;;;;;;;6.87;93.03;99666.56;4947989;28;20103;-89
2022/01/04 03:24:16;;;;;;;67.47;55.73;;;;;;;6.77;93.37;99666.03;4929007;29;20020;-88
2022/01/04 03:26:42;;;;;;;64.97;56.13;;;;;;;6.77;93.02;99654.97;4915992;29;20039;-86
2022/01/04 03:29:09;;;;;;;62.80;55.33;;;;;;;6.77;93.30;99655.78;4919019;29;20027;-87
2022/01/04 03:31:34;;;;;;;63.13;56.13;;;;;;;6.64;93.53;99634.88;4902531;29;20039;-87
2022/01/04 03:34:00;;;;;;;61.37;54.43;;;;;;;6.70;93.70;99637.25;4908207;29;20108;-87
2022/01/04 03:36:25;;;;;;;63.87;56.50;;;;;;;6.81;93.94;99646.31;4913889;29;20024;-87
2022/01/04 03:38:56;;;;;;;62.17;55.30;;;;;;;6.84;93.76;99636.00;4896789;29;20127;-90
2022/01/04 03:41:23;;;;;;;61.72;54.75;;;;;;;6.94;93.63;99631.47;4926392;29;20036;-88
2022/01/04 03:43:49;;;;;;;67.90;57.08;;;;;;;6.92;92.75;99628.94;4913973;29;20046;-88
2022/01/04 03:46:14;;;;;;;62.60;55.30;;;;;;;6.85;93.41;99632.56;4915246;29;20034;-90
2022/01/04 03:48:40;;;;;;;66.90;57.17;;;;;;;6.82;93.18;99613.03;4915345;29;20433;-87
2022/01/04 03:51:06;;;;;;;67.37;56.17;;;;;;;6.81;93.27;99606.28;4912214;29;20446;-90
2022/01/04 03:53:32;;;;;;;65.45;55.55;;;;;;;6.74;93.68;99604.78;4929001;29;20111;-87
2022/01/04 03:55:57;;;;;;;62.30;55.63;;;;;;;6.75;93.83;99596.22;4944206;29;20122;-89
2022/01/04 03:58:23;;;;;;;64.83;56.07;;;;;;;6.68;93.32;99598.16;4929596;29;20095;-87
2022/01/04 04:00:48;;;;;;;62.67;54.53;;;;;;;6.78;93.72;99602.97;4913695;29;20028;-87
2022/01/04 04:03:14;;;;;;;61.33;54.93;;;;;;;6.80;93.49;99589.25;4915808;29;20047;-87
2022/01/04 04:05:39;;;;;;;61.80;55.15;;;;;;;6.78;93.23;99595.31;4905285;29;20032;-88
2022/01/04 04:08:05;;;;;;;62.10;55.20;;;;;;;6.83;93.52;99589.16;4910282;29;20016;-88
2022/01/04 04:10:30;;;;;;;62.17;55.40;;;;;;;6.77;93.92;99598.75;4913154;29;20021;-88
2022/01/04 04:12:56;;;;;;;62.87;56.00;;;;;;;6.85;93.34;99592.50;4929967;29;20042;-87
2022/01/04 04:15:21;;;;;;;68.73;55.47;;;;;;;6.80;93.54;99590.97;4931207;29;20023;-88
2022/01/04 04:17:46;;;;;;;66.33;59.17;;;;;;;6.74;94.18;99591.16;4928416;29;20019;-88
2022/01/04 04:20:12;;;;;;;64.23;57.53;;;;;;;6.71;93.85;99581.88;4912377;29;20012;-87
2022/01/04 04:22:38;;;;;;;69.03;56.30;;;;;;;6.77;94.17;99571.44;4933014;28;20011;-87
2022/01/04 04:25:03;;;;;;;65.57;55.70;;;;;;;6.74;94.23;99560.50;4948636;29;20113;-86
2022/01/04 04:27:28;;;;;;;64.17;56.07;;;;;;;6.77;93.93;99557.84;4950938;29;20042;-87
2022/01/04 04:29:54;;;;;;;71.70;57.90;;;;;;;6.71;93.90;99554.59;4914127;29;20024;-87
2022/01/04 04:32:19;;;;;;;66.53;57.40;;;;;;;6.69;94.58;99546.13;4909716;29;20401;-87
2022/01/04 04:34:44;;;;;;;66.27;56.70;;;;;;;6.69;94.11;99543.56;4924998;29;20024;-87
2022/01/04 04:37:10;;;;;;;64.50;56.30;;;;;;;6.68;94.46;99541.94;4925596;29;20027;-87
2022/01/04 04:39:35;;;;;;;65.37;55.93;;;;;;;6.59;93.97;99528.59;4920877;29;20038;-89
2022/01/04 04:42:01;;;;;;;72.97;58.20;;;;;;;6.57;93.82;99526.09;4923680;29;20039;-88
2022/01/04 04:44:26;;;;;;;64.30;56.70;;;;;;;6.84;93.10;99549.94;4926526;28;20153;-87
2022/01/04 04:46:52;;;;;;;71.33;58.63;;;;;;;6.76;93.36;99544.25;4937573;29;20285;-85
2022/01/04 04:49:17;;;;;;;78.40;59.90;;;;;;;6.65;94.06;99534.34;4936837;29;20034;-86
2022/01/04 04:51:42;;;;;;;71.30;59.37;;;;;;;6.68;93.67;99533.41;4910875;29;20036;-86
2022/01/04 04:54:08;;;;;;;73.30;58.87;;;;;;;6.64;94.22;99522.44;4891639;29;20020;-86
2022/01/04 04:56:38;;;;;;;70.78;57.15;;;;;;;6.70;94.23;99522.25;4915985;29;20031;-87
2022/01/04 04:59:07;;;;;;;76.65;57.85;;;;;;;6.71;93.90;99523.94;4922980;29;20087;-86
2022/01/04 05:01:32;;;;;;;70.28;57.53;;;;;;;6.70;94.56;99516.31;4924550;29;20043;-86
2022/01/04 05:03:57;;;;;;;64.53;55.43;;;;;;;6.78;93.94;99506.69;4940244;29;20086;-86
2022/01/04 05:06:22;;;;;;;65.00;56.97;;;;;;;6.78;93.26;99513.53;4920969;29;20027;-89
2022/01/04 05:08:48;;;;;;;72.33;56.77;;;;;;;6.71;94.04;99506.06;4934264;29;20031;-88
2022/01/04 05:11:13;;;;;;;64.80;56.53;;;;;;;6.70;93.80;99499.25;4912882;29;20039;-88
2022/01/04 05:13:38;;;;;;;63.90;56.50;;;;;;;6.72;93.82;99491.53;4921339;29;20023;-89
2022/01/04 05:16:04;;;;;;;68.03;56.70;;;;;;;6.77;93.64;99496.50;4927163;29;20036;-88
2022/01/04 05:18:30;;;;;;;72.13;57.55;;;;;;;6.63;93.81;99482.44;4943023;29;20011;-89
2022/01/04 05:20:55;;;;;;;63.77;56.27;;;;;;;6.58;94.06;99466.44;4927534;29;20019;-89
2022/01/04 05:23:21;;;;;;;65.07;57.00;;;;;;;6.65;93.80;99480.69;4917926;29;20474;-89
2022/01/04 05:25:46;;;;;;;62.87;56.13;;;;;;;6.68;93.88;99485.72;4918159;29;20042;-88
2022/01/04 05:28:11;;;;;;;62.80;56.03;;;;;;;6.64;93.98;99476.47;4913362;29;20095;-89
2022/01/04 05:30:36;;;;;;;65.63;57.50;;;;;;;6.56;94.00;99458.00;4908508;29;20437;-88
2022/01/04 05:33:02;;;;;;;73.70;57.93;;;;;;;6.71;93.79;99472.84;4930068;29;20058;-88
2022/01/04 05:35:28;;;;;;;69.40;58.10;;;;;;;6.64;93.63;99471.34;4919134;29;20475;-89
2022/01/04 05:37:53;;;;;;;73.63;56.97;;;;;;;6.75;93.88;99477.84;4899683;29;20035;-88
2022/01/04 05:40:19;;;;;;;79.43;60.87;;;;;;;6.70;94.55;99470.31;4918447;29;20023;-88
2022/01/04 05:42:44;;;;;;;78.93;61.03;;;;;;;6.78;94.09;99478.56;4913860;29;20329;-88
2022/01/04 05:45:10;;;;;;;78.03;58.57;;;;;;;6.71;94.19;99465.16;4915526;29;20032;-88
2022/01/04 05:47:35;;;;;;;68.47;57.73;;;;;;;6.74;94.34;99463.38;4910927;29;20032;-87
2022/01/04 05:50:00;;;;;;;68.33;57.80;;;;;;;6.67;93.91;99445.69;4896811;29;20027;-87
2022/01/04 05:52:26;;;;;;;69.83;55.33;;;;;;;6.77;94.06;99476.06;4923710;29;20027;-88
2022/01/04 05:54:51;;;;;;;68.77;56.43;;;;;;;6.75;93.95;99472.72;4926030;29;20036;-87
2022/01/04 05:57:17;;;;;;;63.80;56.90;;;;;;;6.75;94.35;99473.56;4909791;29;20446;-87
2022/01/04 05:59:42;;;;;;;68.30;58.03;;;;;;;6.72;94.48;99478.78;4911276;29;20035;-87
2022/01/04 06:02:07;;;;;;;71.00;57.67;;;;;;;6.66;94.99;99468.75;4920523;29;20031;-88
2022/01/04 06:04:33;;;;;;;64.30;57.17;;;;;;;6.64;94.74;99462.84;4918035;29;20414;-88
2022/01/04 06:06:59;;;;;;;67.97;56.57;;;;;;;6.69;95.61;99464.34;4912356;29;20032;-88
2022/01/04 06:09:28;;;;;;;66.00;58.38;;;;;;;6.67;95.60;99463.59;4910195;29;20020;-89
2022/01/04 06:17:05;;;;;;;80.40;59.00;;;;;;;6.57;96.31;99435.81;4944634;29;20098;-88
2022/01/04 06:19:30;;;;;;;66.43;57.17;;;;;;;6.56;96.77;99441.84;4912288;29;20028;-89
2022/01/04 06:21:55;;;;;;;67.30;58.33;;;;;;;6.62;96.10;99439.09;4922489;29;20020;-89
2022/01/04 06:24:21;;;;;;;68.03;59.53;;;;;;;6.73;95.90;99442.13;4930207;28;20103;-88
2022/01/04 06:26:46;;;;;;;75.07;60.23;;;;;;;6.72;94.97;99436.16;4929234;29;20032;-89
2022/01/04 06:29:11;;;;;;;75.90;57.70;;;;;;;6.73;96.12;99426.78;4927713;29;20051;-89
2022/01/04 06:31:39;;;;;;;72.53;60.97;;;;;;;6.57;96.04;99413.69;4926608;28;20022;-87
2022/01/04 06:34:04;;;;;;;68.43;59.13;;;;;;;6.63;96.39;99428.78;4953345;28;20039;-89
2022/01/04 06:36:29;;;;;;;73.07;59.37;;;;;;;6.52;95.65;99403.63;4919295;29;20020;-88
2022/01/04 06:38:55;;;;;;;63.10;56.07;;;;;;;6.62;95.97;99410.97;4926105;29;20039;-87
2022/01/04 06:43:55;;;;;;;65.95;58.70;;;;;;;6.70;95.65;99409.81;5037086;23;20078;-87
2022/01/04 06:46:21;;;;;;;64.90;57.93;;;;;;;6.43;95.98;99391.16;4964432;28;20038;-87
2022/01/04 06:48:48;;;;;;;71.27;59.13;;;;;;;6.63;96.00;99416.00;4949253;29;20034;-87
2022/01/04 06:51:14;;;;;;;70.78;59.78;;;;;;;6.59;95.87;99419.56;4946374;29;20018;-87
2022/01/04 06:53:39;;;;;;;66.77;58.07;;;;;;;6.67;96.06;99420.16;4943360;29;20039;-87
2022/01/04 06:56:05;;;;;;;72.23;59.00;;;;;;;6.69;95.57;99410.69;4950522;29;20051;-88
2022/01/04 06:59:23;;;;;;;78.47;60.50;;;;;;;6.78;95.85;99406.19;4953240;28;20018;-91
2022/01/04 07:02:05;;;;;;;78.35;61.47;;;;;;;6.46;95.71;99379.97;4991142;28;20062;-89
2022/01/04 07:04:30;;;;;;;85.05;62.75;;;;;;;6.52;95.52;99384.88;4937001;29;20038;-87
2022/01/04 07:06:56;;;;;;;82.60;62.07;;;;;;;6.44;95.72;99384.31;4940563;28;20023;-89
2022/01/04 07:09:21;;;;;;;89.22;62.65;;;;;;;6.51;96.55;99383.22;4959552;28;20042;-91
2022/01/04 07:11:54;;;;;;;72.63;59.90;;;;;;;6.46;96.23;99369.75;4956683;28;20031;-88
2022/01/04 07:14:19;;;;;;;74.43;59.55;;;;;;;6.52;96.63;99374.66;4962086;28;20107;-89
2022/01/04 07:16:45;;;;;;;71.93;61.10;;;;;;;6.68;96.14;99390.31;4962389;28;20035;-88
2022/01/04 07:19:15;;;;;;;80.90;62.10;;;;;;;6.47;96.57;99353.56;4961655;28;20019;-89
2022/01/04 07:21:41;;;;;;;73.47;61.25;;;;;;;6.58;96.23;99369.34;4978181;28;20015;-89
2022/01/04 07:24:06;;;;;;;77.85;60.45;;;;;;;6.71;95.94;99390.19;4962925;28;20050;-89
2022/01/04 07:26:52;;;;;;;74.67;59.93;;;;;;;6.50;96.35;99358.56;4965382;28;20030;-90
2022/01/04 07:29:18;;;;;;;70.80;60.10;;;;;;;6.49;96.26;99370.50;5024684;23;20055;-91
2022/01/04 07:31:48;;;;;;;74.70;60.08;;;;;;;6.48;96.42;99357.78;4968311;28;20094;-90
2022/01/04 07:34:14;;;;;;;72.90;58.83;;;;;;;6.71;96.23;99398.72;5109471;23;20031;-86
2022/01/04 07:36:39;;;;;;;81.10;60.17;;;;;;;6.75;95.71;99393.50;5240317;23;20101;-87
2022/01/04 07:39:05;;;;;;;75.00;60.97;;;;;;;6.67;95.92;99384.38;4958988;23;20042;-88
2022/01/04 07:41:30;;;;;;;70.67;60.43;;;;;;;6.65;96.43;99375.94;4949925;28;20272;-86
2022/01/04 07:43:55;;;;;;;78.60;61.17;;;;;;;6.64;95.75;99379.34;5088827;23;20051;-87
2022/01/04 07:48:55;;;;;;;74.82;60.03;;;;;;;6.69;95.71;99386.88;5053230;23;20090;-86
2022/01/04 07:51:23;;;;;;;76.63;58.97;;;;;;;6.71;96.36;99385.94;4952173;29;20035;-89
2022/01/04 07:53:52;;;;;;;82.05;60.53;;;;;;;6.66;96.18;99392.09;4954518;28;20415;-87
2022/01/04 07:56:21;;;;;;;76.05;60.72;;;;;;;6.64;96.07;99378.53;4957527;28;20039;-87
2022/01/04 07:58:47;;;;;;;83.93;61.92;;;;;;;6.53;95.99;99348.25;4937250;29;20032;-87
2022/01/04 08:01:13;;;;;;;71.67;59.37;;;;;;;6.59;95.62;99350.59;4932610;29;20162;-89
2022/01/04 08:03:38;;;;;;;79.20;60.47;;;;;;;6.70;95.80;99366.38;4936114;29;20027;-88
2022/01/04 08:06:04;;;;;;;74.47;59.40;;;;;;;6.63;95.65;99361.53;4936926;29;20041;-88
2022/01/04 08:08:30;;;;;;;72.00;60.73;;;;;;;6.63;96.05;99364.09;4931574;29;20032;-88
2022/01/04 08:10:56;;;;;;;76.43;60.58;;;;;;;6.73;96.33;99373.13;4949992;29;20046;-88
2022/01/04 08:13:21;;;;;;;78.97;60.97;;;;;;;6.64;95.93;99345.31;4963807;28;20028;-89
2022/01/04 08:15:47;;;;;;;74.23;59.53;;;;;;;6.75;95.99;99365.41;4946506;29;20027;-88
2022/01/04 08:18:12;;;;;;;73.53;59.40;;;;;;;6.72;96.38;99361.22;4947439;29;20034;-88
2022/01/04 08:20:37;;;;;;;72.27;58.20;;;;;;;6.68;96.18;99350.28;4942390;29;20035;-88
2022/01/04 08:23:02;;;;;;;74.40;60.20;;;;;;;6.74;95.74;99358.59;4951204;29;20053;-87
2022/01/04 08:25:29;;;;;;;74.43;58.90;;;;;;;6.75;96.13;99344.94;4949596;29;20023;-87
2022/01/04 08:27:54;;;;;;;82.68;61.92;;;;;;;6.71;95.93;99339.09;4959495;29;20027;-88
2022/01/04 08:30:24;;;;;;;75.77;59.83;;;;;;;6.71;95.73;99327.16;4932933;29;20062;-89
2022/01/04 08:32:51;;;;;;;72.35;61.08;;;;;;;6.75;96.36;99335.56;4915550;29;20090;-89
2022/01/04 08:35:17;;;;;;;75.60;59.28;;;;;;;6.77;96.56;99330.38;4930522;29;20046;-89
2022/01/04 08:37:42;;;;;;;75.38;58.95;;;;;;;6.72;95.88;99331.38;4931479;29;20023;-89
2022/01/04 08:40:11;;;;;;;72.97;58.83;;;;;;;6.75;95.79;99329.63;4925079;29;20036;-88
2022/01/04 08:42:37;;;;;;;73.32;58.60;;;;;;;6.77;96.53;99326.09;4947033;29;20020;-89
2022/01/04 08:45:07;;;;;;;81.50;60.90;;;;;;;6.66;96.55;99311.13;4943209;29;20058;-88
2022/01/04 08:47:33;;;;;;;70.95;58.70;;;;;;;6.66;96.45;99300.91;4929244;29;20047;-88
2022/01/04 08:49:59;;;;;;;72.23;59.93;;;;;;;6.63;96.83;99295.91;4954481;29;20059;-88
2022/01/04 08:52:26;;;;;;;74.32;58.92;;;;;;;6.53;96.77;99280.09;4962799;29;20024;-88
2022/01/04 08:54:51;;;;;;;74.25;59.20;;;;;;;6.77;96.77;99297.16;5036460;23;20057;-89
2022/01/04 08:57:17;;;;;;;73.10;62.37;;;;;;;6.67;96.60;99297.50;4965657;28;20042;-89
2022/01/04 08:59:42;;;;;;;71.32;59.65;;;;;;;6.77;97.07;99320.16;4956575;28;20448;-89
2022/01/04 09:02:08;;;;;;;73.63;59.10;;;;;;;6.65;97.06;99289.06;4958544;28;20035;-90
2022/01/04 09:04:36;;;;;;;75.33;59.53;;;;;;;6.68;96.89;99285.53;4955032;28;20143;-89
2022/01/04 09:07:01;;;;;;;73.28;60.45;;;;;;;6.85;97.23;99307.94;4953463;28;20030;-88
2022/01/04 09:09:26;;;;;;;73.23;59.07;;;;;;;6.57;98.29;99270.63;4938775;29;20027;-88
2022/01/04 09:11:53;;;;;;;79.67;61.30;;;;;;;6.53;98.27;99271.59;4943829;28;20023;-88
2022/01/04 09:14:24;;;;;;;74.90;60.97;;;;;;;6.57;98.61;99275.72;4936426;28;20018;-86
2022/01/04 09:20:27;;;;;;;75.07;61.25;;;;;;;6.71;98.36;99281.16;4967963;28;20029;-86
2022/01/04 09:23:18;;;;;;;;;;;;;;;;;;;;;
2022/01/04 09:25:52;;;;;;;79.60;61.78;;;;;;;6.59;98.16;99263.72;4938985;29;20119;-84
2022/01/04 09:29:03;;;;;;;93.70;60.55;;;;;;;6.48;97.72;99219.84;4913066;29;20035;-86
2022/01/04 09:32:05;;;;;;;77.72;62.38;;;;;;;6.85;97.29;99274.72;4930657;29;20032;-86
2022/01/04 09:34:31;;;;;;;78.70;61.88;;;;;;;6.90;97.59;99275.38;4927191;28;20046;-84
2022/01/04 09:36:57;;;;;;;73.05;58.95;;;;;;;6.85;96.73;99264.50;4951720;28;20383;-83
2022/01/04 09:39:24;;;;;;;77.22;59.78;;;;;;;6.87;96.75;99267.81;4952048;28;20385;-85
2022/01/04 09:41:53;;;;;;;80.57;60.88;;;;;;;6.89;96.55;99266.06;4951599;28;20033;-86
2022/01/04 09:44:22;;;;;;;79.10;60.78;;;;;;;6.92;96.17;99271.06;4963791;28;20042;-84
2022/01/04 09:47:08;;;;;;;78.00;61.05;;;;;;;7.00;95.71;99268.19;4964224;28;20090;-83
2022/01/04 09:49:34;;;;;;;68.43;58.17;;;;;;;7.05;95.70;99276.53;4973262;28;20027;-85
2022/01/04 09:52:00;;;;;;;70.93;59.57;;;;;;;6.97;96.29;99268.31;4956018;28;20584;-85
2022/01/04 09:54:26;;;;;;;74.00;60.25;;;;;;;7.02;95.81;99277.47;4952253;28;20030;-84
2022/01/04 09:56:52;;;;;;;75.97;61.95;;;;;;;6.99;95.11;99277.59;4952252;28;20043;-83
2022/01/04 09:59:18;;;;;;;75.15;60.00;;;;;;;7.07;95.58;99274.75;4966206;28;20022;-85
2022/01/04 10:01:49;;;;;;;76.30;60.33;;;;;;;6.99;95.35;99266.53;4971942;28;20043;-84
2022/01/04 10:04:15;;;;;;;74.03;61.83;;;;;;;6.96;96.14;99267.47;4958487;28;20027;-82
2022/01/04 10:06:56;;;;;;;68.43;60.10;;;;;;;7.00;95.98;99265.63;4960594;28;20042;-83
2022/01/04 10:09:34;;;;;;;69.80;59.28;;;;;;;7.10;95.52;99268.72;4951072;28;20110;-83
2022/01/04 10:11:59;;;;;;;69.70;59.30;;;;;;;7.12;95.49;99264.34;4962614;28;20038;-82
2022/01/04 10:14:34;;;;;;;88.07;63.33;;;;;;;7.06;95.56;99273.94;4960065;28;20787;-82
2022/01/04 10:17:02;;;;;;;72.20;60.15;;;;;;;7.18;95.15;99266.69;4955772;29;20019;-83
2022/01/04 10:19:35;;;;;;;70.43;60.28;;;;;;;7.12;94.98;99254.13;4971355;28;20029;-83
2022/01/04 10:22:23;;;;;;;68.45;58.30;;;;;;;7.16;94.78;99245.44;4962107;28;20093;-84
2022/01/04 10:25:10;;;;;;;69.72;58.80;;;;;;;7.21;95.27;99243.56;4944179;28;20034;-86
2022/01/04 10:27:44;;;;;;;68.75;57.50;;;;;;;7.18;94.99;99247.06;4960082;28;20073;-83
2022/01/04 10:30:27;;;;;;;70.53;58.17;;;;;;;7.18;94.87;99238.56;4962324;28;20026;-86
2022/01/04 10:33:08;;;;;;;75.97;59.85;;;;;;;7.01;95.01;99223.84;4977518;28;20037;-89
2022/01/04 10:35:54;;;;;;;70.30;59.53;;;;;;;7.01;94.71;99219.56;4950338;28;20034;-88
2022/01/04 10:38:35;;;;;;;71.88;59.20;;;;;;;7.05;96.45;99246.69;4955692;28;20019;-85
2022/01/04 10:41:11;;;;;;;69.88;58.55;;;;;;;6.97;97.74;99232.50;4986156;28;20030;-83
2022/01/04 10:43:46;;;;;;;76.22;58.67;;;;;;;6.90;98.24;99231.91;4987576;28;20027;-84
2022/01/04 10:46:14;;;;;;;71.22;59.55;;;;;;;6.75;99.77;99212.88;4962649;28;20082;-82
2022/01/04 10:48:44;;;;;;;74.60;57.40;;;;;;;6.67;100.00;99215.72;4962048;29;20022;-83
2022/01/04 10:51:13;;;;;;;68.18;57.17;;;;;;;6.55;99.17;99223.81;4954338;28;20011;-83
2022/01/04 10:53:40;;;;;;;60.33;53.40;;;;;;;6.48;98.35;99204.53;4964553;28;20023;-85
2022/01/04 10:56:14;;;;;;;57.42;51.55;;;;;;;6.40;96.88;99203.97;4968494;28;20027;-83
2022/01/04 10:58:48;;;;;;;59.30;53.05;;;;;;;6.72;97.30;99216.38;4964820;28;20015;-82
2022/01/04 11:01:15;;;;;;;57.78;51.78;;;;;;;6.74;96.11;99184.84;4980545;28;20078;-83
2022/01/04 11:03:46;;;;;;;57.05;51.20;;;;;;;6.65;96.56;99186.00;4964168;28;20517;-84
2022/01/04 11:06:20;;;;;;;57.70;51.70;;;;;;;6.83;96.58;99194.72;4966782;28;20050;-84
2022/01/04 11:08:46;;;;;;;58.60;52.53;;;;;;;6.69;96.89;99190.13;4952836;28;20077;-84
2022/01/04 11:11:11;;;;;;;61.03;54.33;;;;;;;6.85;96.68;99191.19;4952461;28;20031;-86
2022/01/04 11:13:40;;;;;;;58.57;52.43;;;;;;;6.67;97.98;99192.72;4967374;28;20479;-84
2022/01/04 11:16:06;;;;;;;59.80;53.53;;;;;;;6.42;99.44;99199.63;4947012;29;20104;-85
2022/01/04 11:18:31;;;;;;;;;;;;;;;6.46;99.85;99202.03;4933311;29;20070;-85
2022/01/04 11:21:00;;;;;;;61.55;54.72;;;;;;;6.51;100.00;99199.31;4939123;28;20331;-84
2022/01/04 11:23:32;;;;;;;61.20;54.60;;;;;;;6.39;99.61;99172.47;4965713;28;20038;-81
2022/01/04 11:25:59;;;;;;;65.38;55.30;;;;;;;6.44;100.00;99197.84;4955049;28;20027;-86
2022/01/04 11:28:25;;;;;;;62.33;55.53;;;;;;;6.32;100.00;99189.72;4967944;28;20053;-86
2022/01/04 11:31:03;;;;;;;63.50;55.05;;;;;;;6.29;100.00;99168.59;4956221;28;20038;-84
2022/01/04 11:34:13;;;;;;;60.83;54.25;;;;;;;6.41;100.00;99178.38;4963751;28;20031;-83
2022/01/04 11:36:41;;;;;;;59.33;53.10;;;;;;;6.45;100.00;99168.88;4973681;28;20028;-85
2022/01/04 11:39:27;;;;;;;61.63;54.67;;;;;;;6.44;99.81;99169.75;4995179;28;20010;-82
2022/01/04 11:41:53;;;;;;;58.75;52.55;;;;;;;6.43;98.78;99176.59;4964899;28;20095;-81
2022/01/04 11:44:24;;;;;;;58.25;52.35;;;;;;;6.61;98.76;99177.63;4965678;28;20039;-81
2022/01/04 11:46:58;;;;;;;58.40;52.40;;;;;;;6.58;97.71;99175.19;4967252;28;20018;-81
2022/01/04 11:49:24;;;;;;;54.72;49.60;;;;;;;6.41;96.07;99162.19;4983801;28;20082;-82